Time;durP1;ratioP1;P1;durP2;ratioP2;P2;SDS_P1;SDS_P2;PMS_P1;PMS_P2;Temp;Humidity;BMP_temperature;BMP_pressure;BME280_temperature;BME280_humidity;BME280_pressure;Samples;Min_cycle;Max_cycle;Signal;HPM_P1;HPM_P2
2021/07/13 00:00:42;;;;;;;22.10;9.95;;;;;;;23.91;66.79;100269.88;5037233;28;20038;-70
2021/07/13 00:03:09;;;;;;;18.90;9.65;;;;;;;24.01;66.11;100267.94;5065490;28;20025;-68
2021/07/13 00:05:36;;;;;;;14.23;9.23;;;;;;;24.30;65.21;100295.44;5033326;28;20022;-68
2021/07/13 00:08:03;;;;;;;17.35;9.23;;;;;;;24.19;65.89;100285.16;5038079;28;20527;-67
2021/07/13 00:10:31;;;;;;;20.58;10.35;;;;;;;23.61;67.59;100258.22;5039677;28;20108;-71
2021/07/13 00:12:58;;;;;;;15.40;10.85;;;;;;;23.48;68.21;100247.91;5035725;28;20024;-69
2021/07/13 00:15:27;;;;;;;13.00;9.57;;;;;;;23.73;67.93;100287.81;5033994;28;20055;-74
2021/07/13 00:17:53;;;;;;;;;;;;;;;23.85;67.72;100283.19;5049769;28;20472;-68
2021/07/13 00:20:19;;;;;;;16.70;9.77;;;;;;;23.98;67.16;100276.78;5052955;28;19913;-70
2021/07/13 00:22:45;;;;;;;14.00;9.80;;;;;;;24.14;66.56;100285.22;5053324;28;20381;-70
2021/07/13 00:25:13;;;;;;;12.65;9.45;;;;;;;24.06;65.71;100266.94;5053284;28;20091;-68
2021/07/13 00:27:39;;;;;;;14.43;9.82;;;;;;;24.09;66.05;100275.69;5053268;28;20025;-68
2021/07/13 00:30:07;;;;;;;12.23;8.85;;;;;;;24.04;65.71;100266.09;5052532;28;20051;-69
2021/07/13 00:32:32;;;;;;;16.80;8.65;;;;;;;23.92;65.73;100274.28;5053680;28;20495;-67
2021/07/13 00:34:58;;;;;;;15.55;9.38;;;;;;;23.86;64.58;100258.56;5053107;28;20116;-69
2021/07/13 00:37:24;;;;;;;15.95;9.02;;;;;;;23.92;65.29;100282.19;5052747;28;20037;-66
2021/07/13 00:39:49;;;;;;;15.45;9.77;;;;;;;23.85;65.59;100275.28;5052764;28;20017;-68
2021/07/13 00:42:16;;;;;;;11.10;9.05;;;;;;;23.81;65.14;100276.25;5052859;28;20454;-67
2021/07/13 00:44:44;;;;;;;12.30;8.73;;;;;;;23.84;65.12;100284.06;5045676;28;20021;-67
2021/07/13 00:47:10;;;;;;;13.48;8.63;;;;;;;23.59;65.72;100277.56;5052395;28;20091;-67
2021/07/13 00:49:37;;;;;;;10.35;8.50;;;;;;;23.32;66.68;100268.44;5052891;28;20021;-70
2021/07/13 00:52:03;;;;;;;15.48;9.15;;;;;;;23.02;67.18;100265.44;5052473;28;20108;-69
2021/07/13 00:54:30;;;;;;;15.25;10.35;;;;;;;22.39;69.75;100284.88;5052671;28;20029;-68
2021/07/13 00:56:56;;;;;;;15.40;10.13;;;;;;;22.24;71.26;100288.56;5052209;28;20061;-69
2021/07/13 00:59:22;;;;;;;14.25;10.32;;;;;;;22.01;71.50;100241.56;5052582;28;20109;-70
2021/07/13 01:01:49;;;;;;;17.58;10.50;;;;;;;22.00;73.09;100297.66;5052378;28;20472;-67
2021/07/13 01:04:17;;;;;;;12.45;10.60;;;;;;;21.91;73.44;100298.66;5052487;28;20021;-69
2021/07/13 01:07:13;;;;;;;13.05;11.52;;;;;;;21.54;75.20;100288.56;5052548;28;20032;-67
2021/07/13 01:10:06;;;;;;;14.35;11.45;;;;;;;21.44;75.62;100286.00;5050915;28;20021;-66
2021/07/13 01:12:57;;;;;;;16.63;11.15;;;;;;;21.05;77.77;100288.16;5052095;28;20037;-74
2021/07/13 01:15:25;;;;;;;14.50;10.65;;;;;;;21.13;77.40;100288.97;5052138;28;20451;-68
2021/07/13 01:18:00;;;;;;;15.20;10.93;;;;;;;21.26;76.80;100275.69;5051978;28;20025;-67
2021/07/13 01:20:51;;;;;;;13.90;10.65;;;;;;;21.72;74.94;100285.75;5052319;28;20106;-67
2021/07/13 01:23:42;;;;;;;14.27;10.13;;;;;;;22.00;72.15;100282.75;5052153;28;20025;-68
2021/07/13 01:26:37;;;;;;;16.15;10.10;;;;;;;22.18;70.68;100291.28;5051829;28;20036;-70
2021/07/13 01:29:08;;;;;;;13.65;9.38;;;;;;;22.35;69.83;100285.78;5052187;28;20033;-68
2021/07/13 01:31:37;;;;;;;12.63;9.68;;;;;;;22.41;69.43;100286.59;5050632;28;20403;-68
2021/07/13 01:34:07;;;;;;;13.73;9.40;;;;;;;22.27;69.76;100273.63;5050659;28;20033;-68
2021/07/13 01:36:41;;;;;;;20.25;10.15;;;;;;;22.42;69.09;100285.69;5051483;28;20446;-69
2021/07/13 01:39:08;;;;;;;14.38;9.10;;;;;;;22.41;68.42;100275.22;5052034;28;20029;-68
2021/07/13 01:41:33;;;;;;;11.40;9.50;;;;;;;22.45;68.87;100276.91;5051669;28;20415;-68
2021/07/13 01:44:00;;;;;;;15.38;9.57;;;;;;;22.08;69.68;100237.94;5051782;28;20043;-67
2021/07/13 01:46:27;;;;;;;15.13;9.32;;;;;;;22.03;69.49;100245.94;5051690;28;20039;-67
2021/07/13 01:48:56;;;;;;;13.35;9.55;;;;;;;22.18;69.16;100283.38;5051637;28;20025;-68
2021/07/13 01:51:24;;;;;;;14.53;9.20;;;;;;;21.83;68.71;100253.19;5051560;28;20017;-69
2021/07/13 01:53:50;;;;;;;12.48;8.88;;;;;;;21.90;68.88;100283.78;5050754;28;20060;-67
2021/07/13 01:56:18;;;;;;;10.40;8.43;;;;;;;22.04;68.98;100296.72;5051355;28;20422;-68
2021/07/13 01:58:47;;;;;;;16.83;9.13;;;;;;;22.10;68.58;100299.28;5031691;28;20026;-69
2021/07/13 02:01:24;;;;;;;13.80;9.93;;;;;;;22.03;68.36;100300.25;5032090;28;20094;-69
2021/07/13 02:03:51;;;;;;;11.63;8.30;;;;;;;22.09;67.88;100298.41;5031762;28;20718;-69
2021/07/13 02:06:20;;;;;;;15.85;8.82;;;;;;;22.19;67.32;100304.41;5031478;28;20025;-69
2021/07/13 02:08:51;;;;;;;11.95;9.25;;;;;;;22.16;66.82;100296.56;5031832;28;20033;-69
2021/07/13 02:11:17;;;;;;;15.95;9.10;;;;;;;22.07;67.93;100304.56;5044425;28;20064;-68
2021/07/13 02:13:44;;;;;;;10.20;8.55;;;;;;;21.87;68.44;100307.44;5051418;28;20049;-69
2021/07/13 02:16:10;;;;;;;14.80;8.93;;;;;;;21.75;69.32;100311.09;5051510;28;20029;-69
2021/07/13 02:18:35;;;;;;;15.75;9.27;;;;;;;21.69;69.30;100304.16;5051598;28;20025;-69
2021/07/13 02:21:01;;;;;;;14.00;9.20;;;;;;;21.46;69.77;100270.25;5050421;28;20021;-68
2021/07/13 02:23:27;;;;;;;13.50;9.13;;;;;;;21.72;69.77;100311.13;5051584;28;20060;-70
2021/07/13 02:25:55;;;;;;;10.68;8.73;;;;;;;21.77;69.35;100315.47;5051496;28;20494;-68
2021/07/13 02:28:30;;;;;;;10.32;8.88;;;;;;;21.75;69.23;100316.38;5051465;28;20025;-69
2021/07/13 02:31:01;;;;;;;10.15;8.57;;;;;;;21.67;69.59;100311.22;5049783;28;20559;-69
2021/07/13 02:33:36;;;;;;;11.18;8.88;;;;;;;21.54;69.75;100313.03;5051307;28;20029;-69
2021/07/13 02:36:08;;;;;;;16.70;9.48;;;;;;;21.48;70.29;100315.72;5051463;28;20488;-69
2021/07/13 02:38:38;;;;;;;16.40;9.15;;;;;;;21.39;70.95;100319.34;5051202;28;20035;-69
2021/07/13 02:41:05;;;;;;;15.85;9.20;;;;;;;21.33;71.31;100322.91;5032633;28;20048;-69
2021/07/13 02:43:30;;;;;;;12.40;9.20;;;;;;;20.79;71.87;100260.38;5051381;28;20025;-69
2021/07/13 02:45:57;;;;;;;14.80;9.52;;;;;;;20.96;72.72;100314.47;5051392;28;20499;-69
2021/07/13 02:48:23;;;;;;;13.45;9.02;;;;;;;21.14;72.32;100321.31;5051644;28;20021;-69
2021/07/13 02:50:53;;;;;;;14.00;8.98;;;;;;;21.25;71.63;100316.84;5051112;28;20523;-69
2021/07/13 02:53:20;;;;;;;14.05;9.57;;;;;;;20.99;73.33;100309.22;5051145;28;20032;-70
2021/07/13 02:55:47;;;;;;;15.70;9.88;;;;;;;20.93;73.82;100314.50;5050775;28;20135;-68
2021/07/13 02:58:14;;;;;;;12.07;10.73;;;;;;;20.27;75.71;100286.97;5032266;28;20467;-72
2021/07/13 03:00:40;;;;;;;16.45;11.23;;;;;;;20.51;75.44;100318.28;5051292;28;20029;-75
2021/07/13 03:03:07;;;;;;;23.95;11.10;;;;;;;20.29;76.31;100324.53;5050872;28;20036;-69
2021/07/13 03:05:34;;;;;;;14.68;11.38;;;;;;;20.49;75.67;100316.56;5051142;28;20102;-69
2021/07/13 03:08:01;;;;;;;16.17;11.50;;;;;;;20.47;75.72;100326.16;5051082;28;20025;-69
2021/07/13 03:10:27;;;;;;;12.00;10.77;;;;;;;20.52;75.40;100327.00;5050886;28;20029;-69
2021/07/13 03:12:54;;;;;;;13.98;11.55;;;;;;;20.33;76.05;100307.91;5050846;28;20028;-69
2021/07/13 03:15:24;;;;;;;14.38;11.25;;;;;;;20.24;76.73;100323.66;5051093;28;20040;-72
2021/07/13 03:17:53;;;;;;;13.88;10.73;;;;;;;19.80;78.50;100329.09;5051453;28;20029;-68
2021/07/13 03:20:20;;;;;;;17.27;11.55;;;;;;;19.88;78.35;100332.56;5054903;28;20037;-69
2021/07/13 03:22:48;;;;;;;14.55;11.30;;;;;;;19.91;78.62;100323.81;5055065;28;20028;-69
2021/07/13 03:25:16;;;;;;;14.30;12.25;;;;;;;19.87;78.48;100315.09;5054585;28;20033;-69
2021/07/13 03:27:44;;;;;;;16.48;11.70;;;;;;;20.04;77.87;100322.03;5054852;28;20025;-69
2021/07/13 03:30:10;;;;;;;14.50;10.20;;;;;;;20.20;76.72;100326.31;5055006;28;20036;-69
2021/07/13 03:32:37;;;;;;;13.50;10.05;;;;;;;20.55;74.87;100326.13;5036046;28;20037;-70
2021/07/13 03:35:04;;;;;;;13.30;9.50;;;;;;;20.65;73.74;100328.69;5054880;28;20036;-69
2021/07/13 03:37:30;;;;;;;14.40;9.88;;;;;;;20.71;72.97;100324.25;5068717;28;20064;-72
2021/07/13 03:39:57;;;;;;;21.50;9.35;;;;;;;20.63;72.07;100317.31;5054879;28;20099;-69
2021/07/13 03:42:23;;;;;;;13.55;9.95;;;;;;;20.64;71.79;100315.56;5054764;28;20025;-69
2021/07/13 03:44:50;;;;;;;17.75;9.13;;;;;;;20.64;71.20;100318.19;5052609;28;20045;-69
2021/07/13 03:47:17;;;;;;;11.23;8.48;;;;;;;20.52;71.60;100296.44;5054423;28;20047;-69
2021/07/13 03:49:48;;;;;;;11.55;8.15;;;;;;;20.64;71.52;100312.94;5054334;28;20029;-73
2021/07/13 03:52:13;;;;;;;10.70;8.60;;;;;;;20.62;71.24;100307.72;5054364;28;20048;-69
2021/07/13 03:54:40;;;;;;;12.23;9.45;;;;;;;20.57;71.88;100311.25;5054174;28;20053;-68
2021/07/13 03:57:06;;;;;;;12.13;8.75;;;;;;;20.51;72.61;100315.66;5053577;28;20065;-69
2021/07/13 03:59:32;;;;;;;10.45;9.35;;;;;;;20.37;73.11;100304.38;5053471;28;20059;-69
2021/07/13 04:01:58;;;;;;;14.65;9.90;;;;;;;20.44;73.20;100315.72;5054324;28;20048;-70
2021/07/13 04:04:24;;;;;;;11.23;9.57;;;;;;;20.45;73.33;100315.69;5053938;28;20016;-71
2021/07/13 04:06:49;;;;;;;14.73;9.55;;;;;;;20.50;73.55;100316.53;5053859;28;20115;-69
2021/07/13 04:09:15;;;;;;;11.50;9.00;;;;;;;20.52;73.77;100312.16;5054099;28;20464;-69
2021/07/13 04:11:40;;;;;;;11.95;9.52;;;;;;;20.41;74.33;100318.34;5054064;28;20029;-70
2021/07/13 04:14:06;;;;;;;14.95;10.77;;;;;;;20.46;74.73;100324.41;5053566;28;20032;-71
2021/07/13 04:16:33;;;;;;;14.40;10.68;;;;;;;20.55;74.64;100326.13;5053503;28;20032;-70
2021/07/13 04:18:58;;;;;;;12.45;10.65;;;;;;;20.60;74.31;100329.56;5053250;28;20512;-73
2021/07/13 04:21:24;;;;;;;14.52;11.13;;;;;;;20.39;74.28;100297.38;5053456;28;20041;-70
2021/07/13 04:23:51;;;;;;;16.88;11.68;;;;;;;20.72;73.98;100337.38;5053714;28;20028;-69
2021/07/13 04:26:16;;;;;;;17.60;11.38;;;;;;;20.76;74.50;100333.88;5052585;28;20389;-70
2021/07/13 04:28:41;;;;;;;13.75;12.25;;;;;;;20.94;74.09;100329.38;5053286;28;20028;-70
2021/07/13 04:31:07;;;;;;;14.77;11.82;;;;;;;20.95;74.25;100325.88;5053893;28;20017;-69
2021/07/13 04:33:32;;;;;;;16.83;12.82;;;;;;;20.92;74.47;100326.78;5053545;28;20057;-69
2021/07/13 04:35:58;;;;;;;15.38;12.63;;;;;;;20.73;75.49;100326.03;5053773;28;20476;-69
2021/07/13 04:38:24;;;;;;;14.50;12.95;;;;;;;20.86;75.36;100308.44;5053811;28;20037;-70
2021/07/13 04:40:50;;;;;;;17.02;13.95;;;;;;;21.01;75.23;100315.31;5053726;28;20029;-69
2021/07/13 04:43:16;;;;;;;16.83;12.85;;;;;;;21.02;75.95;100327.53;5053634;28;20035;-69
2021/07/13 04:45:41;;;;;;;18.30;13.20;;;;;;;20.80;76.01;100284.88;5053636;28;20029;-68
2021/07/13 04:48:07;;;;;;;18.00;14.32;;;;;;;20.77;77.39;100330.38;5053564;28;20074;-70
2021/07/13 04:50:33;;;;;;;15.50;13.20;;;;;;;20.95;77.22;100315.38;5053403;28;20106;-70
2021/07/13 04:52:58;;;;;;;16.10;14.40;;;;;;;20.95;76.89;100321.47;5053431;28;20139;-69
2021/07/13 04:55:24;;;;;;;18.55;13.73;;;;;;;20.96;76.81;100317.97;5053233;28;20131;-69
2021/07/13 04:57:50;;;;;;;14.52;12.77;;;;;;;20.99;77.15;100307.44;5053341;28;20055;-70
2021/07/13 05:00:16;;;;;;;17.85;13.52;;;;;;;20.95;77.18;100299.63;5053291;28;20053;-69
2021/07/13 05:02:41;;;;;;;16.98;13.43;;;;;;;21.16;77.34;100315.19;5052979;28;20037;-69
2021/07/13 05:05:10;;;;;;;17.17;13.90;;;;;;;20.94;77.09;100287.38;5052931;28;20415;-70
2021/07/13 05:07:43;;;;;;;18.40;14.02;;;;;;;21.09;77.51;100308.22;5053292;28;20061;-69
2021/07/13 05:10:13;;;;;;;17.45;14.60;;;;;;;21.09;77.31;100312.63;5052958;28;20043;-70
2021/07/13 05:12:39;;;;;;;16.02;14.32;;;;;;;21.22;77.35;100309.00;5053025;28;20028;-70
2021/07/13 05:15:07;;;;;;;17.90;13.23;;;;;;;21.29;76.96;100317.69;5051782;28;20040;-72
2021/07/13 05:17:33;;;;;;;16.25;13.40;;;;;;;21.37;77.67;100328.09;5051431;28;20024;-70
2021/07/13 05:19:58;;;;;;;14.93;13.43;;;;;;;21.48;77.30;100329.75;5052989;28;20527;-69
2021/07/13 05:22:24;;;;;;;17.63;13.55;;;;;;;21.58;76.29;100319.16;5052709;28;20401;-69
2021/07/13 05:24:50;;;;;;;19.38;14.52;;;;;;;21.65;76.24;100318.22;5052665;28;20033;-70
2021/07/13 05:27:17;;;;;;;17.27;13.23;;;;;;;21.75;76.02;100319.00;5052737;28;20027;-69
2021/07/13 05:29:43;;;;;;;16.75;13.35;;;;;;;21.92;75.50;100329.28;5052717;28;20124;-69
2021/07/13 05:32:09;;;;;;;15.43;13.32;;;;;;;22.09;74.91;100335.22;5052753;28;20021;-70
2021/07/13 05:34:34;;;;;;;17.88;13.85;;;;;;;22.18;74.45;100334.25;5052629;28;20484;-69
2021/07/13 05:37:00;;;;;;;17.48;13.68;;;;;;;22.28;74.82;100330.59;5052687;28;20108;-70
2021/07/13 05:39:25;;;;;;;16.70;14.77;;;;;;;22.39;74.55;100335.75;5052639;28;20037;-70
2021/07/13 05:41:51;;;;;;;19.15;14.65;;;;;;;22.49;74.18;100332.97;5051724;28;20435;-69
2021/07/13 05:44:17;;;;;;;16.70;13.02;;;;;;;22.56;73.90;100339.88;5052505;28;20440;-72
2021/07/13 05:46:42;;;;;;;14.05;12.63;;;;;;;22.60;73.59;100342.44;5052547;28;20419;-70
2021/07/13 05:49:08;;;;;;;18.45;13.60;;;;;;;22.70;74.15;100332.63;5052429;28;20445;-69
2021/07/13 05:51:33;;;;;;;20.85;15.15;;;;;;;;;;5051180;28;20037;-70
2021/07/13 05:53:58;;;;;;;18.63;14.32;;;;;;;23.02;72.36;100328.63;5052422;28;20025;-69
2021/07/13 05:56:24;;;;;;;15.18;13.30;;;;;;;23.14;72.04;100331.94;5051850;28;20121;-70
2021/07/13 05:58:51;;;;;;;18.48;12.88;;;;;;;23.14;72.95;100334.56;5052124;28;20024;-70
2021/07/13 06:01:16;;;;;;;16.63;13.50;;;;;;;23.20;72.07;100327.47;5052047;28;20722;-73
2021/07/13 06:03:42;;;;;;;19.67;13.07;;;;;;;23.31;73.21;100332.53;5052385;28;20111;-69
2021/07/13 06:06:07;;;;;;;20.48;14.00;;;;;;;23.47;70.72;100329.63;5052005;28;20029;-70
2021/07/13 06:08:33;;;;;;;17.02;14.07;;;;;;;23.41;71.26;100328.84;5051003;28;20029;-70
2021/07/13 06:10:58;;;;;;;20.70;14.50;;;;;;;23.50;72.95;100324.28;5051966;28;20053;-70
2021/07/13 06:13:23;;;;;;;16.38;12.75;;;;;;;23.70;69.68;100326.53;5051819;28;20033;-69
2021/07/13 06:15:49;;;;;;;15.68;13.43;;;;;;;23.82;69.29;100331.56;5050450;28;20096;-69
2021/07/13 06:18:20;;;;;;;17.23;13.57;;;;;;;23.94;69.18;100330.50;5038151;28;20029;-71
2021/07/13 06:20:46;;;;;;;14.80;13.25;;;;;;;23.80;69.35;100324.59;5069255;28;20150;-70
2021/07/13 06:23:12;;;;;;;18.30;14.25;;;;;;;23.67;69.88;100321.34;5069140;28;20547;-70
2021/07/13 06:25:37;;;;;;;15.23;12.73;;;;;;;23.79;69.79;100328.13;5069426;28;20044;-70
2021/07/13 06:28:03;;;;;;;16.55;13.40;;;;;;;23.93;70.74;100323.47;5069249;28;20041;-69
2021/07/13 06:30:29;;;;;;;13.77;12.32;;;;;;;23.90;69.45;100319.13;5052810;28;20052;-70
2021/07/13 06:32:54;;;;;;;14.77;12.48;;;;;;;23.92;68.62;100283.97;5069382;28;20067;-70
2021/07/13 06:35:20;;;;;;;16.17;11.85;;;;;;;24.41;67.72;100324.22;5069395;28;20047;-71
2021/07/13 06:37:45;;;;;;;14.20;12.13;;;;;;;24.44;66.81;100324.16;5069269;28;20460;-70
2021/07/13 06:40:12;;;;;;;15.02;12.20;;;;;;;24.10;67.15;100243.13;5068955;28;20420;-70
2021/07/13 06:42:38;;;;;;;17.48;13.10;;;;;;;24.62;67.55;100307.88;5068938;28;20530;-70
2021/07/13 06:45:05;;;;;;;14.60;12.20;;;;;;;24.64;67.82;100308.72;5068872;28;20111;-70
2021/07/13 06:47:31;;;;;;;18.13;12.23;;;;;;;24.65;66.98;100313.13;5069000;28;20097;-70
2021/07/13 06:49:56;;;;;;;14.32;12.30;;;;;;;24.64;67.57;100305.22;5069361;28;20093;-71
2021/07/13 06:52:22;;;;;;;16.83;12.80;;;;;;;24.74;67.28;100304.09;5040188;28;20072;-70
2021/07/13 06:54:47;;;;;;;14.32;12.07;;;;;;;24.86;66.21;100305.56;5031563;28;20038;-70
2021/07/13 06:57:12;;;;;;;17.77;13.57;;;;;;;24.85;67.56;100261.59;5031599;28;20050;-70
2021/07/13 06:59:38;;;;;;;16.67;13.02;;;;;;;25.33;65.10;100303.50;5031194;28;20029;-71
2021/07/13 07:02:03;;;;;;;15.90;12.07;;;;;;;25.47;64.21;100303.16;5031695;28;20071;-70
2021/07/13 07:04:29;;;;;;;15.35;12.85;;;;;;;25.67;63.18;100294.66;5031109;28;20400;-70
2021/07/13 07:06:54;;;;;;;27.52;23.45;;;;;;;25.90;62.52;100297.53;5031699;28;20040;-70
2021/07/13 07:09:20;;;;;;;21.30;18.55;;;;;;;26.07;64.16;100302.34;5031652;28;20036;-70
2021/07/13 07:11:46;;;;;;;13.55;12.15;;;;;;;26.19;63.04;100296.69;5031206;28;20117;-70
2021/07/13 07:14:12;;;;;;;15.70;11.88;;;;;;;26.29;62.34;100292.84;5031124;28;20056;-70
2021/07/13 07:16:37;;;;;;;17.10;12.30;;;;;;;26.31;66.35;100275.13;5031244;28;20031;-70
2021/07/13 07:19:03;;;;;;;16.55;12.32;;;;;;;26.41;63.63;100285.44;5031114;28;20104;-71
2021/07/13 07:21:29;;;;;;;29.15;22.58;;;;;;;26.54;61.78;100286.75;5031302;28;20026;-70
2021/07/13 07:23:54;;;;;;;14.35;12.93;;;;;;;26.60;62.29;100286.56;5029848;28;20029;-70
2021/07/13 07:26:20;;;;;;;121.85;87.05;;;;;;;26.66;61.31;100284.66;5031077;28;20382;-70
2021/07/13 07:28:45;;;;;;;27.05;18.98;;;;;;;26.85;60.56;100280.47;5030886;28;20034;-70
2021/07/13 07:31:11;;;;;;;45.63;33.03;;;;;;;27.00;59.56;100287.03;5031320;28;20057;-69
2021/07/13 07:33:36;;;;;;;16.85;13.35;;;;;;;27.08;59.21;100273.53;5031145;28;20026;-71
2021/07/13 07:36:02;;;;;;;17.98;12.73;;;;;;;27.24;57.02;100276.50;5030712;28;20029;-70
2021/07/13 07:38:28;;;;;;;15.18;13.45;;;;;;;27.25;62.13;100267.63;5030995;28;20499;-71
2021/07/13 07:40:53;;;;;;;15.23;12.60;;;;;;;27.26;62.35;100285.28;5031007;28;20033;-70
2021/07/13 07:43:19;;;;;;;15.65;12.57;;;;;;;27.16;57.66;100266.19;5030549;28;20404;-70
2021/07/13 07:45:45;;;;;;;15.20;12.45;;;;;;;27.31;56.26;100275.38;5030895;28;20026;-71
2021/07/13 07:48:11;;;;;;;13.65;11.13;;;;;;;27.37;54.31;100282.25;5030852;28;20025;-70
2021/07/13 07:50:37;;;;;;;13.80;11.43;;;;;;;27.41;55.24;100274.13;5030851;28;20033;-70
2021/07/13 07:53:03;;;;;;;13.68;12.27;;;;;;;27.50;59.26;100280.88;5031072;28;20032;-70
2021/07/13 07:55:28;;;;;;;14.00;10.32;;;;;;;27.53;53.54;100279.94;5030773;28;20022;-70
2021/07/13 07:57:55;;;;;;;14.05;11.52;;;;;;;27.77;52.86;100284.31;5030460;28;20084;-70
2021/07/13 08:00:21;;;;;;;14.35;12.30;;;;;;;27.95;58.06;100283.66;5030839;28;20026;-70
2021/07/13 08:02:47;;;;;;;12.52;11.27;;;;;;;27.91;56.40;100282.91;5030813;28;20040;-70
2021/07/13 08:05:14;;;;;;;15.13;13.10;;;;;;;27.89;58.41;100280.34;5033327;28;20113;-70
2021/07/13 08:07:41;;;;;;;17.77;12.02;;;;;;;27.86;57.92;100282.22;5033455;28;20032;-71
2021/07/13 08:10:08;;;;;;;17.08;12.68;;;;;;;27.86;56.42;100283.09;5034220;28;20021;-70
2021/07/13 08:12:34;;;;;;;18.77;12.38;;;;;;;28.14;53.38;100268.81;5033955;28;20033;-70
2021/07/13 08:14:59;;;;;;;19.17;12.50;;;;;;;28.19;53.03;100282.75;5034245;28;20032;-70
2021/07/13 08:17:25;;;;;;;18.00;11.05;;;;;;;28.19;54.00;100271.28;5034052;28;20025;-70
2021/07/13 08:19:51;;;;;;;15.10;11.68;;;;;;;28.30;54.07;100269.06;5033901;28;20516;-70
2021/07/13 08:22:16;;;;;;;12.70;10.85;;;;;;;28.28;54.96;100280.66;5034027;28;20033;-70
2021/07/13 08:24:42;;;;;;;17.05;11.10;;;;;;;28.36;50.25;100274.13;5033855;28;20060;-70
2021/07/13 08:27:08;;;;;;;15.65;11.18;;;;;;;28.50;50.37;100276.22;5033699;28;20037;-70
2021/07/13 08:29:35;;;;;;;15.93;9.35;;;;;;;28.71;47.23;100262.97;5034027;28;20035;-70
2021/07/13 08:32:01;;;;;;;11.88;9.35;;;;;;;28.81;48.05;100259.03;5034115;28;20452;-71
2021/07/13 08:34:33;;;;;;;12.88;9.75;;;;;;;28.97;45.98;100251.25;5033968;28;20021;-71
2021/07/13 08:36:59;;;;;;;13.10;8.73;;;;;;;29.03;42.97;100261.59;5048055;28;20033;-73
2021/07/13 08:39:24;;;;;;;13.20;9.55;;;;;;;29.17;44.35;100260.16;5053437;28;20472;-73
2021/07/13 08:41:50;;;;;;;12.27;8.90;;;;;;;29.13;44.17;100243.47;5053121;28;20024;-70
2021/07/13 08:44:16;;;;;;;14.38;8.60;;;;;;;29.23;43.73;100257.22;5053302;28;20021;-70
2021/07/13 08:46:43;;;;;;;12.63;8.60;;;;;;;29.36;44.40;100254.94;5053274;28;20026;-70
2021/07/13 08:49:11;;;;;;;14.18;9.30;;;;;;;29.50;47.02;100263.13;5052891;28;20513;-71
2021/07/13 08:51:37;;;;;;;14.18;9.45;;;;;;;29.48;46.30;100257.00;5050438;28;20450;-70
2021/07/13 08:54:04;;;;;;;9.57;8.60;;;;;;;29.58;47.28;100253.94;5053002;28;20105;-70
2021/07/13 08:56:35;;;;;;;11.63;8.93;;;;;;;29.64;45.46;100253.66;5052737;28;20546;-69
2021/07/13 08:59:03;;;;;;;13.73;8.30;;;;;;;29.67;43.53;100254.38;5053190;28;20025;-72
2021/07/13 09:01:28;;;;;;;11.40;8.57;;;;;;;29.66;44.55;100230.50;5052991;28;20033;-73
2021/07/13 09:04:01;;;;;;;11.68;8.93;;;;;;;30.01;45.83;100258.13;5051839;28;20108;-72
2021/07/13 09:06:26;;;;;;;10.05;8.77;;;;;;;30.09;47.20;100255.09;5053247;28;20028;-70
2021/07/13 09:08:52;;;;;;;9.45;7.80;;;;;;;30.15;42.70;100252.16;5051198;28;20029;-69
2021/07/13 09:11:20;;;;;;;10.60;7.45;;;;;;;30.31;42.59;100248.75;5052945;28;20056;-70
2021/07/13 09:13:54;;;;;;;9.40;7.70;;;;;;;30.43;40.91;100252.59;5052990;28;20074;-71
2021/07/13 09:16:21;;;;;;;8.52;7.47;;;;;;;30.46;41.04;100253.31;5050558;28;20126;-72
2021/07/13 09:18:52;;;;;;;11.68;7.30;;;;;;;30.51;40.23;100247.78;5055859;28;20057;-70
2021/07/13 09:21:25;;;;;;;10.48;7.40;;;;;;;30.70;42.15;100253.03;5057621;28;20051;-70
2021/07/13 09:24:14;;;;;;;9.70;7.28;;;;;;;30.89;40.13;100260.09;5058096;28;20032;-73
2021/07/13 09:26:47;;;;;;;;;;;;;;;30.95;39.04;100241.13;5052187;28;20036;-74
2021/07/13 09:29:42;;;;;;;8.85;5.68;;;;;;;30.96;36.83;100243.72;5048271;28;20372;-70
2021/07/13 09:32:23;;;;;;;10.07;7.10;;;;;;;31.18;40.75;100255.97;5037239;28;20582;-73
2021/07/13 09:34:58;;;;;;;10.20;5.88;;;;;;;31.30;36.44;100243.75;5049865;28;20123;-72
2021/07/13 09:37:25;;;;;;;9.15;5.32;;;;;;;31.44;33.76;100248.34;5058421;28;20025;-70
2021/07/13 09:40:02;;;;;;;10.05;5.30;;;;;;;31.62;32.78;100238.50;5057710;28;20505;-72
2021/07/13 09:42:30;;;;;;;8.82;5.43;;;;;;;31.74;31.06;100243.19;5062308;28;20024;-71
2021/07/13 09:45:27;;;;;;;7.32;5.30;;;;;;;31.86;33.37;100235.44;5060438;28;20487;-73
2021/07/13 09:47:57;;;;;;;14.65;6.07;;;;;;;31.97;32.85;100229.50;5033263;28;20061;-74
2021/07/13 09:50:34;;;;;;;6.72;5.03;;;;;;;32.14;31.64;100231.19;5029510;28;20026;-69
2021/07/13 09:53:02;;;;;;;9.35;6.80;;;;;;;32.21;33.39;100236.13;5029744;28;20132;-69
2021/07/13 09:55:28;;;;;;;20.80;12.20;;;;;;;32.29;32.56;100225.03;5012649;28;20606;-71
2021/07/13 09:58:06;;;;;;;12.07;8.18;;;;;;;32.33;34.37;100229.22;5012569;28;20049;-69
2021/07/13 10:00:32;;;;;;;9.43;6.17;;;;;;;32.12;34.01;100193.91;5028965;28;20017;-70
2021/07/13 10:02:58;;;;;;;9.10;7.78;;;;;;;32.32;33.74;100230.19;5043171;28;20299;-71
2021/07/13 10:05:24;;;;;;;11.63;6.20;;;;;;;32.22;34.17;100183.59;5027433;28;20056;-72
2021/07/13 10:07:50;;;;;;;9.38;6.88;;;;;;;32.44;34.72;100223.28;5028275;28;20116;-68
2021/07/13 10:10:16;;;;;;;11.20;5.95;;;;;;;32.30;31.29;100173.31;5028681;28;20032;-70
2021/07/13 10:12:42;;;;;;;9.10;6.28;;;;;;;32.28;33.00;100172.53;5028699;28;20069;-69
2021/07/13 10:15:08;;;;;;;7.85;5.93;;;;;;;32.67;31.74;100205.00;5028689;28;20022;-70
2021/07/13 10:17:33;;;;;;;9.32;6.00;;;;;;;32.85;31.75;100211.94;5028187;28;20452;-68
2021/07/13 10:20:10;;;;;;;8.77;6.80;;;;;;;32.93;34.25;100199.94;5028610;28;20033;-70
2021/07/13 10:22:43;;;;;;;11.02;6.07;;;;;;;33.10;36.70;100205.09;5027150;28;20067;-73
2021/07/13 10:25:09;;;;;;;9.07;6.75;;;;;;;33.26;35.41;100212.16;5045381;28;20043;-70
2021/07/13 10:27:36;;;;;;;9.32;6.47;;;;;;;33.37;34.58;100204.34;5049896;28;20029;-76
2021/07/13 10:30:28;;;;;;;9.88;6.38;;;;;;;33.50;30.84;100205.28;5049375;28;20025;-74
2021/07/13 10:32:55;;;;;;;13.35;6.65;;;;;;;33.27;31.17;100171.91;5028182;28;20038;-69
2021/07/13 10:35:24;;;;;;;9.15;7.05;;;;;;;33.56;30.52;100206.72;5027712;28;20096;-73
2021/07/13 10:38:02;;;;;;;11.55;6.32;;;;;;;33.69;30.84;100201.44;5028081;28;20536;-68
2021/07/13 10:40:28;;;;;;;14.40;6.67;;;;;;;33.86;30.12;100205.75;5027844;28;20036;-72
2021/07/13 10:42:53;;;;;;;14.57;6.50;;;;;;;33.55;31.38;100127.38;5028064;28;20029;-74
2021/07/13 10:45:37;;;;;;;11.10;7.00;;;;;;;34.21;32.13;100199.88;5028258;28;20025;-69
2021/07/13 10:48:17;;;;;;;10.07;6.68;;;;;;;34.00;29.64;100165.50;5027701;28;20045;-72
2021/07/13 10:50:42;;;;;;;9.43;7.28;;;;;;;34.19;32.87;100196.44;5027340;28;20504;-72
2021/07/13 10:53:14;;;;;;;10.73;7.38;;;;;;;34.11;32.38;100171.97;5027814;28;20075;-71
2021/07/13 10:55:43;;;;;;;8.88;7.00;;;;;;;34.39;28.99;100186.22;5027735;28;20029;-71
2021/07/13 10:58:08;;;;;;;;;;;;;;;34.49;29.49;100181.94;5028241;28;20036;-74
2021/07/13 11:00:58;;;;;;;10.20;6.78;;;;;;;34.37;30.58;100183.66;5028085;28;19912;-71
2021/07/13 11:03:27;;;;;;;13.35;7.70;;;;;;;34.55;31.84;100176.16;5014458;28;20041;-72
2021/07/13 11:05:55;;;;;;;9.82;7.07;;;;;;;33.91;31.93;100144.72;5028011;28;20087;-74
2021/07/13 11:08:40;;;;;;;9.23;6.57;;;;;;;34.18;32.95;100186.66;5027374;28;20037;-73
2021/07/13 11:11:06;;;;;;;10.93;6.78;;;;;;;34.38;32.05;100187.19;5042700;28;20037;-74
2021/07/13 11:13:32;;;;;;;11.27;7.00;;;;;;;34.65;29.17;100174.56;5045177;28;20025;-76
2021/07/13 11:15:57;;;;;;;8.85;6.50;;;;;;;34.73;29.85;100176.75;5046283;28;20589;-76
2021/07/13 11:18:30;;;;;;;10.75;6.72;;;;;;;34.67;31.00;100186.06;5030419;28;20780;-78